Time;durP1;ratioP1;P1;durP2;ratioP2;P2;SDS_P1;SDS_P2;PMS_P1;PMS_P2;Temp;Humidity;BMP_temperature;BMP_pressure;BME280_temperature;BME280_humidity;BME280_pressure;Samples;Min_cycle;Max_cycle;Signal;HPM_P1;HPM_P2
2022/08/21 00:01:34;;;;;;;1.73;1.50;;;;;;;;;;9929170;28;20050;-60
2022/08/21 00:06:29;;;;;;;2.60;1.60;;;;;;;;;;9924131;28;20796;-60
2022/08/21 00:11:23;;;;;;;1.95;1.40;;;;;;;;;;9917568;28;20109;-58
2022/08/21 00:16:19;;;;;;;5.07;1.50;;;;;;;;;;9944610;28;20043;-59
2022/08/21 00:21:13;;;;;;;2.38;1.88;;;;;;;;;;9939475;28;20076;-59
2022/08/21 00:26:08;;;;;;;3.08;1.58;;;;;;;;;;9927028;28;20436;-58
2022/08/21 00:31:03;;;;;;;1.52;1.42;;;;;;;;;;9921353;28;20051;-59
2022/08/21 00:35:57;;;;;;;3.38;2.13;;;;;;;;;;9941508;28;20046;-59
2022/08/21 00:40:59;;;;;;;2.08;1.98;;;;;;;;;;9940507;28;20054;-60
2022/08/21 00:46:12;;;;;;;5.72;2.10;;;;;;;;;;9937810;28;20417;-59
2022/08/21 00:51:12;;;;;;;2.80;2.28;;;;;;;;;;9938743;28;20093;-59
2022/08/21 00:56:07;;;;;;;2.08;1.88;;;;;;;;;;9942851;28;20051;-59
2022/08/21 01:01:05;;;;;;;3.63;2.13;;;;;;;;;;9923231;28;20117;-60
2022/08/21 01:06:00;;;;;;;3.05;2.55;;;;;;;;;;9945003;28;20110;-61
2022/08/21 01:10:53;;;;;;;4.78;3.00;;;;;;;;;;9945072;28;20109;-61
2022/08/21 01:15:52;;;;;;;2.83;2.30;;;;;;;;;;9945963;28;20073;-61
2022/08/21 01:21:10;;;;;;;2.60;2.40;;;;;;;;;;9929876;28;20057;-60
2022/08/21 01:26:06;;;;;;;5.78;2.45;;;;;;;;;;9945553;28;20051;-61
2022/08/21 01:31:00;;;;;;;2.80;2.60;;;;;;;;;;9946295;28;20050;-60
2022/08/21 01:35:55;;;;;;;4.00;2.88;;;;;;;;;;9946072;28;20129;-60
2022/08/21 01:40:49;;;;;;;4.03;2.70;;;;;;;;;;9945556;28;20065;-60
2022/08/21 01:45:43;;;;;;;3.33;2.78;;;;;;;;;;9945139;28;20146;-60
2022/08/21 01:50:37;;;;;;;5.30;2.85;;;;;;;;;;9945301;28;20453;-60
2022/08/21 01:55:32;;;;;;;3.97;3.00;;;;;;;;;;9945050;28;20074;-61
2022/08/21 02:00:25;;;;;;;3.55;2.70;;;;;;;;;;9939499;28;20049;-61
2022/08/21 02:05:19;;;;;;;4.35;2.50;;;;;;;;;;9944578;28;20051;-59
2022/08/21 02:10:25;;;;;;;2.83;2.40;;;;;;;;;;9944947;28;20134;-60
2022/08/21 02:15:20;;;;;;;3.20;2.03;;;;;;;;;;9940732;28;20054;-60
2022/08/21 02:20:27;;;;;;;3.05;2.50;;;;;;;;;;9934323;28;20089;-61
2022/08/21 02:25:22;;;;;;;16.92;3.20;;;;;;;;;;9943676;28;20564;-60
2022/08/21 02:30:24;;;;;;;4.10;2.00;;;;;;;;;;9944065;28;20062;-59
2022/08/21 02:35:18;;;;;;;4.03;2.28;;;;;;;;;;9943404;28;20069;-59
2022/08/21 02:40:14;;;;;;;4.28;3.08;;;;;;;;;;9942839;28;20458;-58
2022/08/21 02:45:10;;;;;;;2.40;1.88;;;;;;;;;;9943391;28;20057;-59
2022/08/21 02:50:06;;;;;;;6.47;2.13;;;;;;;;;;9943698;28;20058;-59
2022/08/21 02:55:00;;;;;;;2.72;2.40;;;;;;;;;;9943288;28;20063;-61
2022/08/21 02:59:54;;;;;;;3.22;2.25;;;;;;;;;;9943152;28;20139;-60
2022/08/21 03:04:47;;;;;;;5.32;2.35;;;;;;;;;;9943260;28;20054;-61
2022/08/21 03:09:41;;;;;;;3.47;2.25;;;;;;;;;;9948820;28;20505;-58
2022/08/21 03:14:48;;;;;;;2.85;2.55;;;;;;;;;;9941517;28;20138;-59
2022/08/21 03:19:42;;;;;;;3.92;2.40;;;;;;;;;;9947367;28;20054;-58
2022/08/21 03:24:35;;;;;;;2.50;2.20;;;;;;;;;;9950537;28;20054;-60
2022/08/21 03:29:36;;;;;;;2.03;1.80;;;;;;;;;;9949916;28;20069;-60
2022/08/21 03:34:30;;;;;;;4.28;2.10;;;;;;;;;;9950865;28;20102;-61
2022/08/21 03:39:24;;;;;;;3.00;1.77;;;;;;;;;;9950206;28;20066;-58
2022/08/21 03:44:19;;;;;;;1.88;1.67;;;;;;;;;;9968127;28;20054;-58
2022/08/21 03:49:13;;;;;;;3.40;1.90;;;;;;;;;;9952978;28;20165;-59
2022/08/21 03:54:06;;;;;;;3.30;2.80;;;;;;;;;;9963933;28;20477;-61
2022/08/21 03:59:02;;;;;;;3.38;2.42;;;;;;;;;;9957601;28;20065;-59
2022/08/21 04:03:55;;;;;;;3.22;1.83;;;;;;;;;;9964582;28;20050;-59
2022/08/21 04:08:49;;;;;;;2.25;1.73;;;;;;;;;;9972398;28;21304;-60
2022/08/21 04:13:42;;;;;;;3.00;1.58;;;;;;;;;;9942593;28;20110;-59
2022/08/21 04:18:37;;;;;;;6.25;2.10;;;;;;;;;;9949470;28;20109;-59
2022/08/21 04:23:30;;;;;;;5.97;2.60;;;;;;;;;;9977462;28;20498;-59
2022/08/21 04:28:25;;;;;;;2.40;2.20;;;;;;;;;;9958184;28;20101;-59
2022/08/21 04:33:24;;;;;;;4.23;3.07;;;;;;;;;;9952687;28;20138;-59
2022/08/21 04:38:17;;;;;;;4.63;2.65;;;;;;;;;;9961615;28;20081;-58
2022/08/21 04:43:10;;;;;;;3.88;3.33;;;;;;;;;;9946758;28;20055;-59
2022/08/21 04:48:07;;;;;;;10.85;3.38;;;;;;;;;;9931049;28;20130;-59
2022/08/21 04:53:10;;;;;;;4.13;3.53;;;;;;;;;;9949157;28;20137;-59
2022/08/21 04:58:25;;;;;;;3.88;2.50;;;;;;;;;;9934717;28;20078;-59
2022/08/21 05:03:18;;;;;;;3.83;2.95;;;;;;;;;;9945358;28;20094;-61
2022/08/21 05:08:14;;;;;;;5.05;3.35;;;;;;;;;;9938633;28;20057;-60
2022/08/21 05:13:08;;;;;;;5.35;3.28;;;;;;;;;;9941495;28;20514;-60
2022/08/21 05:18:03;;;;;;;4.60;3.38;;;;;;;;;;9948466;28;20051;-60
2022/08/21 05:22:58;;;;;;;4.75;3.85;;;;;;;;;;9957237;28;20057;-57
2022/08/21 05:27:53;;;;;;;5.95;3.72;;;;;;;;;;9954906;28;20074;-60
2022/08/21 05:32:50;;;;;;;3.97;3.58;;;;;;;;;;9952719;28;20065;-57
2022/08/21 05:37:44;;;;;;;4.05;3.47;;;;;;;;;;9956951;28;20129;-57
2022/08/21 05:42:38;;;;;;;6.30;4.43;;;;;;;;;;9956065;28;20059;-57
2022/08/21 05:47:31;;;;;;;5.95;3.80;;;;;;;;;;9949906;28;20050;-57
2022/08/21 05:52:26;;;;;;;4.07;3.20;;;;;;;;;;9941931;28;20064;-55
2022/08/21 05:57:20;;;;;;;4.05;3.38;;;;;;;;;;9943083;28;20055;-60
2022/08/21 06:02:17;;;;;;;3.28;2.50;;;;;;;;;;9941239;28;20060;-64
2022/08/21 06:07:11;;;;;;;2.50;2.10;;;;;;;;;;9940388;28;20050;-61
2022/08/21 06:12:08;;;;;;;6.20;2.00;;;;;;;;;;9937052;28;20454;-58
2022/08/21 06:17:22;;;;;;;4.03;2.45;;;;;;;;;;9939991;28;20070;-59
2022/08/21 06:22:16;;;;;;;3.55;2.65;;;;;;;;;;9936766;28;20047;-62
2022/08/21 06:27:10;;;;;;;4.25;3.38;;;;;;;;;;9938892;28;20051;-60
2022/08/21 06:32:08;;;;;;;6.13;1.98;;;;;;;;;;9941892;28;20077;-60
2022/08/21 06:37:03;;;;;;;6.75;1.90;;;;;;;;;;9943461;28;20078;-58
2022/08/21 06:41:57;;;;;;;2.03;1.83;;;;;;;;;;9935996;28;20093;-59
2022/08/21 06:46:53;;;;;;;4.32;1.92;;;;;;;;;;9944192;28;20042;-59
2022/08/21 06:51:47;;;;;;;15.65;2.72;;;;;;;;;;9945381;28;20051;-59
2022/08/21 06:56:41;;;;;;;3.22;1.42;;;;;;;;;;9946740;28;20066;-59
2022/08/21 07:01:36;;;;;;;2.55;1.33;;;;;;;;;;9955064;28;20061;-59
2022/08/21 07:06:31;;;;;;;2.78;1.60;;;;;;;;;;9952669;28;20055;-59
2022/08/21 07:11:28;;;;;;;1.42;1.33;;;;;;;;;;9930242;28;20095;-59
2022/08/21 07:16:28;;;;;;;3.65;1.70;;;;;;;;;;9942059;28;20051;-59
2022/08/21 07:21:22;;;;;;;3.45;1.38;;;;;;;;;;9945159;28;20051;-59
2022/08/21 07:26:20;;;;;;;1.80;1.70;;;;;;;;;;9945226;28;20141;-59
2022/08/21 07:31:16;;;;;;;1.42;1.10;;;;;;;;;;9917930;28;20043;-58
2022/08/21 07:36:11;;;;;;;1.52;1.20;;;;;;;;;;9940848;28;20060;-59
2022/08/21 07:41:10;;;;;;;2.50;2.08;;;;;;;;;;9943406;28;20055;-59
2022/08/21 07:46:05;;;;;;;1.88;1.35;;;;;;;;;;9927876;28;20509;-59
2022/08/21 07:51:03;;;;;;;7.30;2.28;;;;;;;;;;9945978;28;20055;-59
2022/08/21 07:56:01;;;;;;;1.50;1.40;;;;;;;;;;9942490;28;20061;-59
2022/08/21 08:00:58;;;;;;;1.40;1.10;;;;;;;;;;9953228;28;20134;-59
2022/08/21 08:05:50;;;;;;;1.73;1.20;;;;;;;;;;9951751;28;20035;-59
2022/08/21 08:10:44;;;;;;;2.88;1.20;;;;;;;;;;9937885;28;20445;-60
2022/08/21 08:15:39;;;;;;;6.43;1.50;;;;;;;;;;9949728;28;20089;-60
2022/08/21 08:20:34;;;;;;;2.50;0.98;;;;;;;;;;9948692;28;20050;-59
2022/08/21 08:25:27;;;;;;;1.50;0.85;;;;;;;;;;9951491;28;20047;-60
2022/08/21 08:30:29;;;;;;;2.75;1.17;;;;;;;;;;9950634;28;20082;-58
2022/08/21 08:35:28;;;;;;;6.93;1.75;;;;;;;;;;9943859;28;20051;-58
2022/08/21 08:40:35;;;;;;;1.35;1.20;;;;;;;;;;9945207;28;20059;-60
2022/08/21 08:45:32;;;;;;;2.65;1.10;;;;;;;;;;9949851;28;20064;-61
2022/08/21 08:50:35;;;;;;;4.25;1.60;;;;;;;;;;9948515;28;20062;-61
2022/08/21 08:55:39;;;;;;;2.97;1.60;;;;;;;;;;9950112;28;20054;-61
2022/08/21 09:00:34;;;;;;;2.50;1.27;;;;;;;;;;9944813;28;20042;-60
2022/08/21 09:05:50;;;;;;;5.45;1.80;;;;;;;;;;9944534;28;20051;-59
2022/08/21 09:11:03;;;;;;;2.43;1.50;;;;;;;;;;9944067;28;20058;-59
2022/08/21 09:15:56;;;;;;;5.68;2.05;;;;;;;;;;9937749;28;20066;-59
2022/08/21 09:21:13;;;;;;;4.47;1.88;;;;;;;;;;9942468;28;20085;-59
2022/08/21 09:26:16;;;;;;;2.30;1.67;;;;;;;;;;9939434;28;20127;-60
2022/08/21 09:31:32;;;;;;;3.53;1.70;;;;;;;;;;9947794;28;20148;-56
2022/08/21 09:36:49;;;;;;;3.17;1.50;;;;;;;;;;9944972;28;20053;-59
2022/08/21 09:41:44;;;;;;;2.47;1.80;;;;;;;;;;9930805;28;20154;-60
2022/08/21 09:46:38;;;;;;;4.47;1.83;;;;;;;;;;9939823;28;20058;-60
2022/08/21 09:51:35;;;;;;;1.88;1.58;;;;;;;;;;9944807;28;20453;-59
2022/08/21 10:01:51;;;;;;;3.45;2.00;;;;;;;;;;9921977;28;20079;-60
2022/08/21 10:06:45;;;;;;;2.57;1.73;;;;;;;;;;9916909;28;20054;-59
2022/08/21 10:11:39;;;;;;;2.25;1.40;;;;;;;;;;9922616;28;20083;-59
2022/08/21 10:16:33;;;;;;;2.53;1.52;;;;;;;;;;9919109;28;20065;-59
2022/08/21 10:21:40;;;;;;;7.00;1.70;;;;;;;;;;9922168;28;20055;-59
2022/08/21 10:26:45;;;;;;;2.97;1.60;;;;;;;;;;9923773;28;20055;-59
2022/08/21 10:31:54;;;;;;;2.22;1.70;;;;;;;;;;9923274;28;20103;-59
2022/08/21 10:37:14;;;;;;;5.35;1.42;;;;;;;;;;9910450;28;20050;-59
2022/08/21 10:42:16;;;;;;;4.00;1.17;;;;;;;;;;9930239;28;20058;-59
2022/08/21 10:47:35;;;;;;;1.63;1.30;;;;;;;;;;9929575;28;20055;-59
2022/08/21 10:53:06;;;;;;;2.35;1.20;;;;;;;;;;9927482;28;20526;-59
2022/08/21 10:58:38;;;;;;;2.50;0.88;;;;;;;;;;9917250;28;20074;-59
2022/08/21 11:03:42;;;;;;;4.82;1.15;;;;;;;;;;9860227;28;20059;-59
2022/08/21 11:08:40;;;;;;;1.67;1.20;;;;;;;;;;9916609;28;20138;-59
2022/08/21 11:13:49;;;;;;;2.20;0.93;;;;;;;;;;9913176;28;20671;-59
2022/08/21 11:18:51;;;;;;;2.78;0.90;;;;;;;;;;9910952;28;20150;-59
2022/08/21 11:24:11;;;;;;;5.55;1.27;;;;;;;;;;9921440;28;20514;-59
2022/08/21 11:29:17;;;;;;;1.58;1.02;;;;;;;;;;9934398;28;20046;-59
2022/08/21 11:34:13;;;;;;;1.95;1.15;;;;;;;;;;9922577;28;20055;-60
2022/08/21 11:39:08;;;;;;;8.07;1.17;;;;;;;;;;9936187;28;20054;-60
2022/08/21 11:44:18;;;;;;;2.65;0.95;;;;;;;;;;9934524;28;20211;-60
2022/08/21 11:49:36;;;;;;;1.73;0.80;;;;;;;;;;9928617;28;20054;-60
2022/08/21 11:54:47;;;;;;;3.45;1.45;;;;;;;;;;9931908;28;20051;-60
2022/08/21 11:59:45;;;;;;;2.63;1.00;;;;;;;;;;9938618;28;20145;-60
2022/08/21 12:04:46;;;;;;;1.75;0.93;;;;;;;;;;9918929;28;20051;-59
2022/08/21 12:09:52;;;;;;;3.13;0.93;;;;;;;;;;9913079;28;20070;-59
2022/08/21 12:14:49;;;;;;;1.85;0.93;;;;;;;;;;9923068;28;20055;-59
2022/08/21 12:19:43;;;;;;;1.15;0.82;;;;;;;;;;9925777;28;20094;-59
2022/08/21 12:24:46;;;;;;;2.03;0.88;;;;;;;;;;9932005;28;20058;-59
2022/08/21 12:29:47;;;;;;;4.13;1.42;;;;;;;;;;9917783;28;20061;-58
2022/08/21 12:34:52;;;;;;;3.40;0.80;;;;;;;;;;9939738;28;20042;-59
2022/08/21 12:39:47;;;;;;;2.85;1.10;;;;;;;;;;9939496;28;20053;-59
2022/08/21 12:44:54;;;;;;;11.15;2.65;;;;;;;;;;9931758;28;20047;-59
2022/08/21 12:49:53;;;;;;;1.08;0.70;;;;;;;;;;9943987;28;20102;-59
2022/08/21 12:54:47;;;;;;;1.20;0.95;;;;;;;;;;9941736;28;20054;-61
2022/08/21 12:59:41;;;;;;;2.50;1.35;;;;;;;;;;9935846;28;20074;-60
2022/08/21 13:04:39;;;;;;;3.35;1.00;;;;;;;;;;9944304;28;20180;-59
2022/08/21 13:09:33;;;;;;;1.98;1.10;;;;;;;;;;9928293;28;20118;-59
2022/08/21 13:14:57;;;;;;;4.97;1.23;;;;;;;;;;9932963;28;20050;-59
2022/08/21 13:20:00;;;;;;;3.75;0.80;;;;;;;;;;9940161;28;20078;-59
2022/08/21 13:24:55;;;;;;;1.77;0.93;;;;;;;;;;9946246;28;20050;-58
2022/08/21 13:29:48;;;;;;;5.90;1.00;;;;;;;;;;9934219;28;20075;-58
2022/08/21 13:34:46;;;;;;;1.67;0.90;;;;;;;;;;9914621;28;20130;-58
2022/08/21 13:39:50;;;;;;;1.55;0.88;;;;;;;;;;9939116;28;20073;-58
2022/08/21 13:44:46;;;;;;;3.58;0.70;;;;;;;;;;9919439;28;20101;-58
2022/08/21 13:49:44;;;;;;;0.63;0.63;;;;;;;;;;9931412;28;20054;-58
2022/08/21 13:54:40;;;;;;;5.05;0.82;;;;;;;;;;9927150;28;20085;-59
2022/08/21 13:59:35;;;;;;;1.35;1.25;;;;;;;;;;9939419;28;20542;-58
2022/08/21 14:04:36;;;;;;;0.90;0.80;;;;;;;;;;9922659;28;20061;-58
2022/08/21 14:09:42;;;;;;;3.67;0.70;;;;;;;;;;9931628;28;20498;-59
2022/08/21 14:14:37;;;;;;;0.95;0.85;;;;;;;;;;9917052;28;20059;-58
2022/08/21 14:19:43;;;;;;;0.88;0.80;;;;;;;;;;9935823;28;20051;-58
2022/08/21 14:24:40;;;;;;;3.30;1.25;;;;;;;;;;9918984;28;20047;-58
2022/08/21 14:29:39;;;;;;;1.13;1.00;;;;;;;;;;9920540;28;20102;-58
2022/08/21 14:34:35;;;;;;;1.17;0.80;;;;;;;;;;9919397;28;20728;-59
2022/08/21 14:39:29;;;;;;;1.23;1.00;;;;;;;;;;9925339;28;20058;-59
2022/08/21 14:44:23;;;;;;;2.45;1.05;;;;;;;;;;9938032;28;20051;-59
2022/08/21 14:49:17;;;;;;;0.95;0.88;;;;;;;;;;9930474;28;20067;-59
2022/08/21 14:54:10;;;;;;;3.83;1.00;;;;;;;;;;9943291;28;20054;-59
2022/08/21 14:59:07;;;;;;;2.97;1.98;;;;;;;;;;9928750;28;20050;-59
2022/08/21 15:04:02;;;;;;;1.48;0.70;;;;;;;;;;9936203;28;20417;-58
2022/08/21 15:08:56;;;;;;;2.85;1.25;;;;;;;;;;9935942;28;20054;-58
2022/08/21 15:13:54;;;;;;;1.83;0.90;;;;;;;;;;9939539;28;20514;-58
2022/08/21 15:18:47;;;;;;;1.85;1.00;;;;;;;;;;9937445;28;20090;-58
2022/08/21 15:23:41;;;;;;;3.15;1.10;;;;;;;;;;9940386;28;20043;-59
2022/08/21 15:28:36;;;;;;;1.60;0.70;;;;;;;;;;9938790;28;20137;-58
2022/08/21 15:33:30;;;;;;;4.50;1.50;;;;;;;;;;9939220;28;20055;-60
2022/08/21 15:38:24;;;;;;;3.15;0.90;;;;;;;;;;9943037;28;20054;-59
2022/08/21 15:43:50;;;;;;;2.47;0.90;;;;;;;;;;9932521;28;20087;-58
2022/08/21 15:48:45;;;;;;;1.88;0.90;;;;;;;;;;9944966;28;20058;-58
2022/08/21 15:53:39;;;;;;;1.13;1.00;;;;;;;;;;9940984;28;20941;-59
2022/08/21 15:58:34;;;;;;;1.15;0.85;;;;;;;;;;9937044;28;20557;-60
2022/08/21 16:03:27;;;;;;;1.88;0.82;;;;;;;;;;9935318;28;20056;-59
2022/08/21 16:08:21;;;;;;;2.90;1.25;;;;;;;;;;9918937;28;20159;-59
2022/08/21 16:13:27;;;;;;;4.00;0.70;;;;;;;;;;9935526;28;20550;-59
2022/08/21 16:18:21;;;;;;;3.67;0.75;;;;;;;;;;9932552;28;20057;-59
2022/08/21 16:23:15;;;;;;;3.10;1.00;;;;;;;;;;9924936;28;20051;-59
2022/08/21 16:28:12;;;;;;;0.60;0.60;;;;;;;;;;9929775;28;20051;-59
2022/08/21 16:33:07;;;;;;;1.33;1.00;;;;;;;;;;9933447;28;20455;-59
2022/08/21 16:38:01;;;;;;;0.85;0.80;;;;;;;;;;9930555;28;20407;-58
2022/08/21 16:42:55;;;;;;;0.88;0.80;;;;;;;;;;9935661;28;20074;-59
2022/08/21 16:47:50;;;;;;;1.30;0.63;;;;;;;;;;9926420;28;20066;-58
2022/08/21 16:52:44;;;;;;;3.25;0.95;;;;;;;;;;9906109;28;20050;-59
2022/08/21 16:57:37;;;;;;;1.20;1.10;;;;;;;;;;9928382;28;20055;-59
2022/08/21 17:02:39;;;;;;;2.30;0.93;;;;;;;;;;9913836;28;20051;-63
2022/08/21 17:07:33;;;;;;;1.83;1.00;;;;;;;;;;9935700;28;20051;-59
2022/08/21 17:12:30;;;;;;;3.38;0.98;;;;;;;;;;9943247;28;20062;-60
2022/08/21 17:17:24;;;;;;;0.85;0.75;;;;;;;;;;9947138;28;20528;-59
2022/08/21 17:22:18;;;;;;;1.10;1.02;;;;;;;;;;9944427;28;20046;-58
2022/08/21 17:27:12;;;;;;;1.20;1.10;;;;;;;;;;9943054;28;20075;-59
2022/08/21 17:32:09;;;;;;;3.20;1.23;;;;;;;;;;9944309;28;20105;-58
2022/08/21 17:37:03;;;;;;;1.67;1.25;;;;;;;;;;9942308;28;20039;-59
2022/08/21 17:42:01;;;;;;;1.15;1.00;;;;;;;;;;9945197;28;20421;-59
2022/08/21 17:46:54;;;;;;;2.33;1.30;;;;;;;;;;9935020;28;20051;-59
2022/08/21 17:51:48;;;;;;;1.98;1.33;;;;;;;;;;9942492;28;20055;-59
2022/08/21 17:56:42;;;;;;;2.85;1.40;;;;;;;;;;9948312;28;20117;-59
2022/08/21 18:01:38;;;;;;;12.13;1.60;;;;;;;;;;9925171;28;20401;-59
2022/08/21 18:06:32;;;;;;;3.08;1.40;;;;;;;;;;9941818;28;20402;-59
2022/08/21 18:11:28;;;;;;;2.03;1.20;;;;;;;;;;9942558;28;20047;-59
2022/08/21 18:16:21;;;;;;;3.88;1.30;;;;;;;;;;9944737;28;20486;-61
2022/08/21 18:21:15;;;;;;;4.88;1.25;;;;;;;;;;9913446;28;20462;-60
2022/08/21 18:26:09;;;;;;;2.03;1.30;;;;;;;;;;9943556;28;20117;-59
2022/08/21 18:31:04;;;;;;;2.00;1.10;;;;;;;;;;9945901;28;20050;-59
2022/08/21 18:35:58;;;;;;;1.88;1.38;;;;;;;;;;9947751;28;20521;-59
2022/08/21 18:40:58;;;;;;;2.10;1.02;;;;;;;;;;9958026;28;20065;-59
2022/08/21 18:46:02;;;;;;;2.63;1.52;;;;;;;;;;9956685;28;20047;-59
2022/08/21 18:50:56;;;;;;;4.75;1.58;;;;;;;;;;9934846;28;20097;-59
2022/08/21 18:55:51;;;;;;;4.72;1.10;;;;;;;;;;9944346;28;20050;-59
2022/08/21 19:00:50;;;;;;;3.22;1.33;;;;;;;;;;9949236;28;20058;-58
2022/08/21 19:05:44;;;;;;;2.00;1.48;;;;;;;;;;9937780;28;20050;-58
2022/08/21 19:10:39;;;;;;;2.35;1.60;;;;;;;;;;9962086;28;20418;-59
2022/08/21 19:15:39;;;;;;;4.57;1.50;;;;;;;;;;9947492;28;20121;-58
2022/08/21 19:20:35;;;;;;;3.75;1.60;;;;;;;;;;9950075;28;20061;-59
2022/08/21 19:25:29;;;;;;;1.80;1.52;;;;;;;;;;9931250;28;20474;-59
2022/08/21 19:30:27;;;;;;;1.95;1.67;;;;;;;;;;9929818;28;20069;-59
2022/08/21 19:35:22;;;;;;;3.15;1.85;;;;;;;;;;9947990;28;20493;-59
2022/08/21 19:40:16;;;;;;;3.13;2.40;;;;;;;;;;9961409;28;20094;-59
2022/08/21 19:45:14;;;;;;;5.53;2.92;;;;;;;;;;9934543;28;20129;-59
2022/08/21 19:50:10;;;;;;;3.67;2.92;;;;;;;;;;9950667;28;20153;-59
2022/08/21 19:55:24;;;;;;;5.53;2.55;;;;;;;;;;9944320;28;20043;-59
2022/08/21 20:00:18;;;;;;;3.95;2.40;;;;;;;;;;9954550;28;20113;-59
2022/08/21 20:05:12;;;;;;;3.40;2.60;;;;;;;;;;9953877;28;20500;-61
2022/08/21 20:10:07;;;;;;;3.95;2.42;;;;;;;;;;9953506;28;20407;-58
2022/08/21 20:15:03;;;;;;;6.97;2.00;;;;;;;;;;9953384;28;20101;-60
2022/08/21 20:19:59;;;;;;;5.03;2.20;;;;;;;;;;9953987;28;20102;-60
2022/08/21 20:24:54;;;;;;;3.40;2.10;;;;;;;;;;9953667;28;20121;-60
2022/08/21 20:29:47;;;;;;;4.25;2.42;;;;;;;;;;9953634;28;20061;-59
2022/08/21 20:34:41;;;;;;;4.05;2.50;;;;;;;;;;9952012;28;20054;-59
2022/08/21 20:39:36;;;;;;;2.85;1.90;;;;;;;;;;9952891;28;20137;-58
2022/08/21 20:44:31;;;;;;;6.93;1.95;;;;;;;;;;9941969;28;20057;-59
2022/08/21 20:49:31;;;;;;;7.50;2.25;;;;;;;;;;9946602;28;20039;-60
2022/08/21 20:54:34;;;;;;;2.75;1.90;;;;;;;;;;9935487;28;20047;-60
2022/08/21 20:59:34;;;;;;;2.53;1.70;;;;;;;;;;9952045;28;20046;-59
2022/08/21 21:04:45;;;;;;;4.55;1.65;;;;;;;;;;9950520;28;20079;-58
2022/08/21 21:09:43;;;;;;;5.47;1.75;;;;;;;;;;9924907;28;20043;-59
2022/08/21 21:14:50;;;;;;;2.22;1.67;;;;;;;;;;9948860;28;20059;-58
2022/08/21 21:19:50;;;;;;;9.80;2.67;;;;;;;;;;9944934;28;20070;-60
2022/08/21 21:24:57;;;;;;;5.45;2.53;;;;;;;;;;9949967;28;20050;-60
2022/08/21 21:30:06;;;;;;;5.57;2.40;;;;;;;;;;9926289;28;20413;-59
2022/08/21 21:35:05;;;;;;;6.00;2.30;;;;;;;;;;9943684;28;20042;-58
2022/08/21 21:40:44;;;;;;;4.28;2.47;;;;;;;;;;9927129;28;20055;-59
2022/08/21 21:45:51;;;;;;;4.63;2.60;;;;;;;;;;9942873;28;20576;-59
2022/08/21 21:50:54;;;;;;;2.60;2.40;;;;;;;;;;9947911;28;20066;-59
2022/08/21 21:56:39;;;;;;;3.65;2.47;;;;;;;;;;9930850;28;20038;-59
2022/08/21 22:01:43;;;;;;;4.85;2.50;;;;;;;;;;9949006;28;20047;-58
2022/08/21 22:06:44;;;;;;;4.00;2.05;;;;;;;;;;9931916;28;20057;-59
2022/08/21 22:12:06;;;;;;;5.05;2.20;;;;;;;;;;9930447;28;20050;-58
2022/08/21 22:17:26;;;;;;;2.38;2.08;;;;;;;;;;9935154;28;20050;-59
2022/08/21 22:22:22;;;;;;;7.00;1.55;;;;;;;;;;9912380;28;20187;-59
2022/08/21 22:27:22;;;;;;;5.10;1.90;;;;;;;;;;9925046;28;20053;-60
2022/08/21 22:32:36;;;;;;;6.70;1.52;;;;;;;;;;9937781;28;20757;-60
2022/08/21 22:37:36;;;;;;;4.07;2.13;;;;;;;;;;9939035;28;20138;-60
2022/08/21 22:42:30;;;;;;;3.70;1.60;;;;;;;;;;9939304;28;20506;-59
2022/08/21 22:47:33;;;;;;;3.20;1.77;;;;;;;;;;9941423;28;20058;-57
2022/08/21 22:52:34;;;;;;;2.63;1.90;;;;;;;;;;9955070;28;20134;-60
2022/08/21 22:57:31;;;;;;;3.70;2.42;;;;;;;;;;9954699;28;20080;-58
2022/08/21 23:02:32;;;;;;;3.45;2.55;;;;;;;;;;9943030;28;20054;-57
2022/08/21 23:07:35;;;;;;;2.50;2.30;;;;;;;;;;9939294;28;20062;-58
2022/08/21 23:12:38;;;;;;;4.18;2.65;;;;;;;;;;9940855;28;20490;-58
2022/08/21 23:18:01;;;;;;;2.10;1.70;;;;;;;;;;9936869;28;20074;-58
2022/08/21 23:22:53;;;;;;;2.15;1.95;;;;;;;;;;9940838;28;20061;-57
2022/08/21 23:27:59;;;;;;;3.30;2.30;;;;;;;;;;9950406;28;20066;-58
2022/08/21 23:33:20;;;;;;;4.05;2.22;;;;;;;;;;9948874;28;20047;-58
2022/08/21 23:38:52;;;;;;;2.08;1.88;;;;;;;;;;9932333;28;20445;-59
2022/08/21 23:44:14;;;;;;;4.00;2.33;;;;;;;;;;9903871;28;20113;-59
2022/08/21 23:49:17;;;;;;;1.92;1.52;;;;;;;;;;9943081;28;20125;-59
2022/08/21 23:54:30;;;;;;;2.55;1.95;;;;;;;;;;9946958;28;20058;-58
2022/08/21 23:59:35;;;;;;;7.75;2.20;;;;;;;;;;9945841;28;20498;-59
